createdAt,value
2023-05-15T00:01:32.382Z,97078.50
2023-05-15T00:03:59.885Z,97072.75
2023-05-15T00:06:28.085Z,97075.22
2023-05-15T00:08:56.975Z,97068.66
2023-05-15T00:11:27.727Z,97061.25
2023-05-15T00:13:55.371Z,97065.34
2023-05-15T00:16:22.960Z,97064.97
2023-05-15T00:18:50.545Z,97065.16
2023-05-15T00:21:18.120Z,97062.28
2023-05-15T00:23:47.458Z,97055.91
2023-05-15T00:26:16.307Z,97064.34
2023-05-15T00:28:43.785Z,97071.75
2023-05-15T00:31:13.079Z,97066.59
2023-05-15T00:33:40.662Z,97059.41
2023-05-15T00:36:09.073Z,97063.28
2023-05-15T00:38:36.574Z,97052.22
2023-05-15T00:41:05.770Z,97054.28
2023-05-15T00:43:35.935Z,97056.53
2023-05-15T00:46:03.682Z,97054.91
2023-05-15T00:48:32.560Z,97053.06
2023-05-15T00:51:00.336Z,97053.88
2023-05-15T00:53:28.413Z,97050.59
2023-05-15T00:55:58.111Z,97040.72
2023-05-15T00:58:26.170Z,97045.88
2023-05-15T01:00:55.172Z,97042.38
2023-05-15T01:03:22.862Z,97041.13
2023-05-15T01:05:50.685Z,97040.31
2023-05-15T01:08:22.540Z,97037.25
2023-05-15T01:10:52.927Z,97043.38
2023-05-15T01:13:21.790Z,97034.75
2023-05-15T01:15:50.222Z,97042.38
2023-05-15T01:18:19.274Z,97031.91
2023-05-15T01:20:58.096Z,97022.69
2023-05-15T01:23:33.333Z,97024.34
2023-05-15T01:26:26.943Z,97022.50
2023-05-15T01:28:59.037Z,97021.44
2023-05-15T01:31:27.823Z,97018.78
2023-05-15T01:33:57.460Z,97027.59
2023-05-15T01:36:28.152Z,97017.53
2023-05-15T01:38:58.803Z,97012.84
2023-05-15T01:41:29.583Z,97007.88
2023-05-15T01:44:02.272Z,97016.34
2023-05-15T01:46:32.523Z,97010.38
2023-05-15T01:49:01.963Z,97014.03
2023-05-15T01:51:30.009Z,97011.59
2023-05-15T01:53:59.282Z,97006.66
2023-05-15T01:56:27.262Z,97004.63
2023-05-15T01:58:55.503Z,97000.94
2023-05-15T02:01:25.046Z,96995.56
2023-05-15T02:03:53.022Z,96995.56
2023-05-15T02:06:21.671Z,97000.13
2023-05-15T02:08:49.351Z,96992.31
2023-05-15T02:11:16.839Z,96990.91
2023-05-15T02:13:46.989Z,96995.81
2023-05-15T02:16:14.529Z,96983.72
2023-05-15T02:18:43.519Z,96976.53
2023-05-15T02:21:11.146Z,96975.50
2023-05-15T02:23:39.177Z,96974.66
2023-05-15T02:26:25.452Z,96975.50
2023-05-15T02:28:58.401Z,96972.59
2023-05-15T02:31:29.699Z,96969.84
2023-05-15T02:34:06.939Z,96968.09
2023-05-15T02:36:34.873Z,96978.41
2023-05-15T02:39:02.758Z,96969.59
2023-05-15T02:41:32.393Z,96972.44
2023-05-15T02:44:00.901Z,96961.38
2023-05-15T02:46:28.923Z,96958.06
2023-05-15T02:48:56.683Z,96960.72
2023-05-15T02:51:25.541Z,96954.28
2023-05-15T02:53:53.189Z,96949.34
2023-05-15T02:56:21.413Z,96947.13
2023-05-15T02:58:49.631Z,96950.22
2023-05-15T03:01:17.195Z,96942.28
2023-05-15T03:03:44.869Z,96953.56
2023-05-15T03:06:12.404Z,96945.56
2023-05-15T03:08:41.245Z,96943.91
2023-05-15T03:11:08.848Z,96940.03
2023-05-15T03:13:36.376Z,96940.25
2023-05-15T03:16:03.963Z,96942.28
2023-05-15T03:18:31.513Z,96937.78
2023-05-15T03:20:59.102Z,96934.69
2023-05-15T03:23:26.602Z,96932.44
2023-05-15T03:25:55.663Z,96927.53
2023-05-15T03:28:23.234Z,96932.84
2023-05-15T03:30:50.779Z,96925.25
2023-05-15T03:33:18.288Z,96926.69
2023-05-15T03:35:45.960Z,96923.63
2023-05-15T03:38:13.480Z,96928.34
2023-05-15T03:40:40.993Z,96919.72
2023-05-15T03:43:09.890Z,96928.56
2023-05-15T03:45:37.380Z,96930.19
2023-05-15T03:48:05.398Z,96927.75
2023-05-15T03:50:33.296Z,96930.41
2023-05-15T03:53:00.841Z,96937.97
2023-05-15T03:55:28.526Z,96933.66
2023-05-15T03:57:56.106Z,96933.88
2023-05-15T04:00:25.320Z,96934.91
2023-05-15T04:02:53.088Z,96935.31
2023-05-15T04:05:21.787Z,96932.69
2023-05-15T04:07:49.450Z,96926.09
2023-05-15T04:10:16.956Z,96928.75
2023-05-15T04:12:44.470Z,96926.09
2023-05-15T04:15:16.854Z,96923.44
2023-05-15T04:17:45.883Z,96926.72
2023-05-15T04:20:15.325Z,96928.75
2023-05-15T04:22:43.157Z,96926.28
2023-05-15T04:25:11.880Z,96923.00
2023-05-15T04:27:39.884Z,96930.19
2023-05-15T04:30:08.989Z,96925.44
2023-05-15T04:32:37.488Z,96925.69
2023-05-15T04:35:10.202Z,96921.34
2023-05-15T04:37:38.197Z,96933.25
2023-05-15T04:40:08.065Z,96924.03
2023-05-15T04:42:39.420Z,96931.22
2023-05-15T04:45:09.125Z,96931.41
2023-05-15T04:47:36.836Z,96932.06
2023-05-15T04:50:07.231Z,96927.53
2023-05-15T04:52:34.769Z,96924.66
2023-05-15T04:55:02.312Z,96929.34
2023-05-15T04:57:30.941Z,96929.78
2023-05-15T04:59:58.953Z,96934.50
2023-05-15T05:02:26.519Z,96923.84
2023-05-15T05:04:54.189Z,96924.59
2023-05-15T05:07:22.992Z,96927.47
2023-05-15T05:09:50.517Z,96926.44
2023-05-15T05:12:18.211Z,96925.00
2023-05-15T05:14:45.788Z,96920.53
2023-05-15T05:17:13.799Z,96917.63
2023-05-15T05:19:41.723Z,96915.13
2023-05-15T05:22:09.450Z,96916.81
2023-05-15T05:24:38.356Z,96909.56
2023-05-15T05:27:06.445Z,96913.47
2023-05-15T05:29:34.108Z,96914.66
2023-05-15T05:32:01.709Z,96913.34
2023-05-15T05:34:29.288Z,96906.78
2023-05-15T05:36:56.824Z,96911.03
2023-05-15T05:39:24.468Z,96910.41
2023-05-15T05:41:53.290Z,96906.25
2023-05-15T05:44:20.805Z,96916.09
2023-05-15T05:46:48.310Z,96919.75
2023-05-15T05:49:15.870Z,96907.97
2023-05-15T05:51:43.838Z,96916.31
2023-05-15T05:54:11.338Z,96917.16
2023-05-15T05:56:38.826Z,96913.44
2023-05-15T05:59:07.679Z,96914.63
2023-05-15T06:01:35.283Z,96919.34
2023-05-15T06:04:02.873Z,96915.50
2023-05-15T06:06:30.817Z,96913.78
2023-05-15T06:08:58.341Z,96905.69
2023-05-15T06:11:25.925Z,96907.47
2023-05-15T06:13:53.425Z,96902.91
2023-05-15T06:16:22.598Z,96902.84
2023-05-15T06:18:50.205Z,96896.97
2023-05-15T06:21:17.786Z,96905.06
2023-05-15T06:23:45.797Z,96900.31
2023-05-15T06:26:13.310Z,96907.53
2023-05-15T06:28:40.817Z,96897.38
2023-05-15T06:31:08.347Z,96899.38
2023-05-15T06:33:37.172Z,96893.81
2023-05-15T06:36:05.001Z,96898.00
2023-05-15T06:38:32.476Z,96895.75
2023-05-15T06:41:00.118Z,96891.56
2023-05-15T06:43:27.666Z,96890.69
2023-05-15T06:45:55.179Z,96891.44
2023-05-15T06:48:22.929Z,96879.97
2023-05-15T06:50:52.476Z,96888.28
2023-05-15T06:53:21.006Z,96889.28
2023-05-15T06:55:48.480Z,96892.84
2023-05-15T06:58:17.943Z,96885.88
2023-05-15T07:00:45.447Z,96888.53
2023-05-15T07:03:14.319Z,96885.97
2023-05-15T07:05:42.301Z,96871.91
2023-05-15T07:08:11.139Z,96877.63
2023-05-15T07:10:38.715Z,96871.81
2023-05-15T07:13:06.554Z,96876.38
2023-05-15T07:15:34.087Z,96885.13
2023-05-15T07:18:01.730Z,96869.97
2023-05-15T07:20:31.732Z,96878.97
2023-05-15T07:23:00.088Z,96879.78
2023-05-15T07:25:29.317Z,96881.72
2023-05-15T07:27:57.001Z,96874.50
2023-05-15T07:30:25.001Z,96874.78
2023-05-15T07:32:52.695Z,96874.88
2023-05-15T07:35:20.341Z,96872.97
2023-05-15T07:37:47.851Z,96866.22
2023-05-15T07:40:15.738Z,96871.06
2023-05-15T07:42:45.118Z,96875.00
2023-05-15T07:45:12.721Z,96866.16
2023-05-15T07:47:42.693Z,96870.88
2023-05-15T07:50:11.240Z,96865.78
2023-05-15T07:52:38.856Z,96871.97
2023-05-15T07:55:07.424Z,96863.09
2023-05-15T07:57:34.900Z,96866.56
2023-05-15T08:00:10.093Z,96864.16
2023-05-15T08:02:40.645Z,96860.50
2023-05-15T08:05:08.938Z,96863.94
2023-05-15T08:07:36.490Z,96865.09
2023-05-15T08:10:06.191Z,96862.16
2023-05-15T08:12:34.026Z,96862.81
2023-05-15T08:15:01.720Z,96862.00
2023-05-15T08:17:30.533Z,96859.66
2023-05-15T08:19:58.037Z,96851.53
2023-05-15T08:22:25.528Z,96861.94
2023-05-15T08:24:53.065Z,96856.03
2023-05-15T08:27:20.597Z,96860.75
2023-05-15T08:29:48.528Z,96854.00
2023-05-15T08:32:16.313Z,96855.84
2023-05-15T08:34:45.237Z,96846.56
2023-05-15T08:37:12.734Z,96845.50
2023-05-15T08:39:40.285Z,96835.81
2023-05-15T08:42:10.351Z,96838.06
2023-05-15T08:44:39.287Z,96841.84
2023-05-15T08:47:07.277Z,96837.13
2023-05-15T08:49:42.192Z,96828.94
2023-05-15T08:52:11.363Z,96837.16
2023-05-15T08:54:40.084Z,96832.84
2023-05-15T08:57:08.212Z,96829.22
2023-05-15T08:59:35.759Z,96832.59
2023-05-15T09:02:03.553Z,96825.97
2023-05-15T09:04:31.183Z,96821.72
2023-05-15T09:07:00.318Z,96831.84
2023-05-15T09:09:30.685Z,96832.31
2023-05-15T09:11:59.748Z,96824.69
2023-05-15T09:14:27.249Z,96826.38
2023-05-15T09:16:55.254Z,96828.44
2023-05-15T09:19:23.354Z,96833.53
2023-05-15T09:21:50.912Z,96832.41
2023-05-15T09:24:21.497Z,96828.41
2023-05-15T09:27:02.997Z,96833.00
2023-05-15T09:29:33.051Z,96826.91
2023-05-15T09:32:03.784Z,96823.38
2023-05-15T09:34:32.181Z,96816.03
2023-05-15T09:37:00.036Z,96823.44
2023-05-15T09:39:27.619Z,96821.50
2023-05-15T09:42:07.031Z,96827.63
2023-05-15T09:44:34.886Z,96817.56
2023-05-15T09:47:02.481Z,96818.91
2023-05-15T09:49:32.073Z,96823.81
2023-05-15T09:52:01.004Z,96826.97
2023-05-15T09:54:30.022Z,96830.34
2023-05-15T09:57:08.530Z,96824.84
2023-05-15T09:59:36.127Z,96824.03
2023-05-15T10:02:03.727Z,96824.72
2023-05-15T10:04:35.648Z,96810.09
2023-05-15T10:07:03.338Z,96810.16
2023-05-15T10:09:32.017Z,96810.97
2023-05-15T10:12:00.952Z,96805.34
2023-05-15T10:14:29.103Z,96801.19
2023-05-15T10:16:56.818Z,96801.84
2023-05-15T10:19:26.457Z,96809.44
2023-05-15T10:21:54.844Z,96808.75
2023-05-15T10:24:22.596Z,96801.81
2023-05-15T10:26:50.258Z,96814.81
2023-05-15T10:29:21.144Z,96816.19
2023-05-15T10:31:49.727Z,96812.88
2023-05-15T10:34:17.397Z,96805.53
2023-05-15T10:36:45.426Z,96806.88
2023-05-15T10:39:13.127Z,96800.94
2023-05-15T10:41:41.260Z,96810.88
2023-05-15T10:44:09.203Z,96803.22
2023-05-15T10:46:38.571Z,96814.84
2023-05-15T10:49:06.269Z,96808.09
2023-05-15T10:51:36.752Z,96824.06
2023-05-15T10:54:04.890Z,96813.06
2023-05-15T10:56:33.191Z,96818.41
2023-05-15T10:59:06.983Z,96806.38
2023-05-15T11:01:35.656Z,96816.97
2023-05-15T11:04:12.614Z,96811.63
2023-05-15T11:06:41.385Z,96807.34
2023-05-15T11:09:34.583Z,96803.53
2023-05-15T11:12:02.893Z,96805.13
2023-05-15T11:14:31.518Z,96803.44
2023-05-15T11:17:06.112Z,96799.88
2023-05-15T11:19:37.212Z,96803.91
2023-05-15T11:22:17.536Z,96795.25
2023-05-15T11:24:56.077Z,96797.75
2023-05-15T11:27:24.667Z,96792.06
2023-05-15T11:30:15.324Z,96791.06
2023-05-15T11:32:50.457Z,96788.66
2023-05-15T11:35:24.547Z,96795.44
2023-05-15T11:37:54.280Z,96793.63
2023-05-15T11:40:24.017Z,96790.31
2023-05-15T11:43:09.285Z,96795.34
2023-05-15T11:45:38.430Z,96786.75
2023-05-15T11:48:07.672Z,96783.66
2023-05-15T11:50:36.667Z,96779.50
2023-05-15T11:53:05.700Z,96779.94
2023-05-15T11:55:34.211Z,96779.13
2023-05-15T11:58:01.721Z,96779.13
2023-05-15T12:00:29.318Z,96776.97
2023-05-15T12:02:57.033Z,96781.03
2023-05-15T12:05:24.835Z,96784.56
2023-05-15T12:07:53.869Z,96785.63
2023-05-15T12:10:21.405Z,96785.63
2023-05-15T12:12:50.036Z,96784.72
2023-05-15T12:15:18.295Z,96793.31
2023-05-15T12:17:46.431Z,96787.31
2023-05-15T12:20:17.848Z,96778.31
2023-05-15T12:22:45.831Z,96779.31
2023-05-15T12:25:16.618Z,96778.94
2023-05-15T12:27:44.384Z,96783.31
2023-05-15T12:30:12.412Z,96789.22
2023-05-15T12:32:40.359Z,96784.84
2023-05-15T12:35:08.365Z,96787.69
2023-05-15T12:37:36.727Z,96790.13
2023-05-15T12:40:10.248Z,96792.84
2023-05-15T12:42:42.791Z,96787.53
2023-05-15T12:45:14.717Z,96788.38
2023-05-15T12:47:42.996Z,96783.06
2023-05-15T12:50:17.816Z,96781.25
2023-05-15T12:52:51.243Z,96787.31
2023-05-15T12:55:19.326Z,96786.53
2023-05-15T12:57:48.176Z,96783.13
2023-05-15T13:00:16.373Z,96789.06
2023-05-15T13:02:44.986Z,96793.44
2023-05-15T13:05:12.773Z,96777.81
2023-05-15T13:07:42.093Z,96782.66
2023-05-15T13:10:10.292Z,96776.47
2023-05-15T13:12:38.776Z,96764.81
2023-05-15T13:15:08.861Z,96762.66
2023-05-15T13:17:36.521Z,96760.50
2023-05-15T13:20:05.660Z,96753.22
2023-05-15T13:22:33.170Z,96746.72
2023-05-15T13:25:00.694Z,96751.28
2023-05-15T13:27:28.239Z,96747.50
2023-05-15T13:29:55.896Z,96745.59
2023-05-15T13:32:26.011Z,96746.69
2023-05-15T13:34:54.908Z,96746.69
2023-05-15T13:37:22.821Z,96743.44
2023-05-15T13:39:50.264Z,96750.47
2023-05-15T13:42:17.781Z,96747.19
2023-05-15T13:44:45.294Z,96750.59
2023-05-15T13:47:12.856Z,96751.47
2023-05-15T13:49:41.785Z,96759.34
2023-05-15T13:52:09.445Z,96752.31
2023-05-15T13:54:36.957Z,96756.25
2023-05-15T13:57:04.771Z,96750.13
2023-05-15T13:59:32.245Z,96739.09
2023-05-15T14:01:59.743Z,96745.56
2023-05-15T14:04:27.486Z,96744.50
2023-05-15T14:06:56.349Z,96752.34
2023-05-15T14:09:23.885Z,96745.00
2023-05-15T14:11:51.415Z,96745.03
2023-05-15T14:14:18.958Z,96745.53
2023-05-15T14:16:46.669Z,96745.03
2023-05-15T14:19:14.311Z,96746.09
2023-05-15T14:21:41.841Z,96744.22
2023-05-15T14:24:10.753Z,96746.13
2023-05-15T14:26:38.567Z,96745.31
2023-05-15T14:29:06.100Z,96748.59
2023-05-15T14:31:33.614Z,96746.94
2023-05-15T14:34:01.226Z,96742.78
2023-05-15T14:36:28.703Z,96748.75
2023-05-15T14:38:57.183Z,96761.53
2023-05-15T14:41:28.466Z,96755.59
2023-05-15T14:43:56.132Z,96745.31
2023-05-15T14:46:23.768Z,96751.53
2023-05-15T14:48:51.321Z,96741.25
2023-05-15T14:51:19.992Z,96745.06
2023-05-15T14:53:47.673Z,96740.47
2023-05-15T14:56:16.551Z,96737.75
2023-05-15T14:58:46.555Z,96738.84
2023-05-15T15:01:14.068Z,96741.78
2023-05-15T15:03:42.564Z,96741.25
2023-05-15T15:06:10.244Z,96746.94
2023-05-15T15:08:37.742Z,96735.84
2023-05-15T15:11:06.357Z,96741.69
2023-05-15T15:13:33.834Z,96750.16
2023-05-15T15:16:02.725Z,96738.28
2023-05-15T15:18:30.308Z,96745.88
2023-05-15T15:20:57.881Z,96740.97
2023-05-15T15:23:25.404Z,96736.13
2023-05-15T15:25:52.888Z,96736.13
2023-05-15T15:28:20.473Z,96738.28
2023-05-15T15:30:48.017Z,96731.50
2023-05-15T15:33:16.835Z,96741.56
2023-05-15T15:35:44.741Z,96732.59
2023-05-15T15:38:13.296Z,96728.53
2023-05-15T15:40:41.518Z,96733.94
2023-05-15T15:43:08.980Z,96726.09
2023-05-15T15:45:36.546Z,96736.66
2023-05-15T15:48:04.328Z,96740.47
2023-05-15T15:50:33.265Z,96744.00
2023-05-15T15:53:00.787Z,96746.94
2023-05-15T15:55:28.301Z,96741.81
2023-05-15T15:57:55.789Z,96747.22
2023-05-15T16:00:23.441Z,96747.47
2023-05-15T16:02:51.058Z,96758.03
2023-05-15T16:05:18.635Z,96753.44
2023-05-15T16:07:48.839Z,96757.47
2023-05-15T16:10:16.461Z,96767.19
2023-05-15T16:12:44.999Z,96754.69
2023-05-15T16:15:22.268Z,96757.72
2023-05-15T16:17:52.728Z,96759.88
2023-05-15T16:20:20.863Z,96760.94
2023-05-15T16:22:50.018Z,96754.38
2023-05-15T16:25:17.608Z,96760.56
2023-05-15T16:27:45.127Z,96763.59
2023-05-15T16:30:14.017Z,96771.91
2023-05-15T16:32:41.561Z,96767.63
2023-05-15T16:35:09.838Z,96766.47
2023-05-15T16:37:37.341Z,96775.41
2023-05-15T16:40:07.591Z,96780.06
2023-05-15T16:42:38.819Z,96776.09
2023-05-15T16:45:07.806Z,96772.81
2023-05-15T16:47:37.552Z,96773.34
2023-05-15T16:50:06.000Z,96773.63
2023-05-15T16:52:33.511Z,96782.34
2023-05-15T16:55:01.090Z,96786.38
2023-05-15T16:57:30.835Z,96787.53
2023-05-15T16:59:59.088Z,96784.22
2023-05-15T17:02:26.864Z,96791.53
2023-05-15T17:04:54.427Z,96802.31
2023-05-15T17:07:21.937Z,96806.56
2023-05-15T17:09:49.397Z,96809.75
2023-05-15T17:12:16.946Z,96810.22
2023-05-15T17:14:45.837Z,96819.09
2023-05-15T17:17:13.459Z,96818.53
2023-05-15T17:19:41.079Z,96820.41
2023-05-15T17:22:08.606Z,96815.81
2023-05-15T17:24:49.929Z,96821.97
2023-05-15T17:27:19.257Z,96816.47
2023-05-15T17:29:48.646Z,96824.22
2023-05-15T17:32:17.056Z,96816.03
2023-05-15T17:34:44.994Z,96818.34
2023-05-15T17:37:12.619Z,96819.25
2023-05-15T17:39:40.132Z,96815.94
2023-05-15T17:42:07.710Z,96813.78
2023-05-15T17:44:35.463Z,96818.16
2023-05-15T17:47:04.513Z,96830.34
2023-05-15T17:49:34.115Z,96833.22
2023-05-15T17:52:01.913Z,96829.94
2023-05-15T17:54:29.450Z,96835.50
2023-05-15T17:56:56.994Z,96839.81
2023-05-15T17:59:24.489Z,96847.91
2023-05-15T18:01:52.067Z,96855.78
2023-05-15T18:04:21.029Z,96860.91
2023-05-15T18:06:48.687Z,96863.41
2023-05-15T18:09:16.336Z,96860.22
2023-05-15T18:11:43.958Z,96869.69
2023-05-15T18:14:11.470Z,96871.44
2023-05-15T18:16:39.063Z,96870.28
2023-05-15T18:19:07.125Z,96872.88
2023-05-15T18:21:37.864Z,96886.81
2023-05-15T18:24:05.996Z,96897.34
2023-05-15T18:26:33.537Z,96902.34
2023-05-15T18:29:01.037Z,96918.53
2023-05-15T18:31:28.670Z,96922.25
2023-05-15T18:33:56.198Z,96924.78
2023-05-15T18:36:23.711Z,96924.22
2023-05-15T18:38:52.549Z,96942.34
2023-05-15T18:41:20.072Z,96939.88
2023-05-15T18:43:47.553Z,96936.03
2023-05-15T18:46:15.147Z,96968.69
2023-05-15T18:48:42.693Z,96936.47
2023-05-15T18:51:10.764Z,96946.75
2023-05-15T18:53:38.288Z,96945.94
2023-05-15T18:56:07.176Z,96953.03
2023-05-15T18:58:35.881Z,96941.38
2023-05-15T19:01:03.701Z,96952.16
2023-05-15T19:03:31.314Z,96962.63
2023-05-15T19:05:59.102Z,96969.50
2023-05-15T19:08:26.604Z,96987.19
2023-05-15T19:10:54.084Z,96985.78
2023-05-15T19:13:22.922Z,96980.75
2023-05-15T19:15:54.018Z,96985.53
2023-05-15T19:18:21.667Z,96985.81
2023-05-15T19:20:51.947Z,96986.00
2023-05-15T19:23:20.502Z,96982.53
2023-05-15T19:25:48.077Z,96976.22
2023-05-15T19:28:15.686Z,96967.13
2023-05-15T19:30:44.665Z,96958.97
2023-05-15T19:33:13.234Z,96966.47
2023-05-15T19:35:40.915Z,96962.25
2023-05-15T19:38:08.596Z,96963.78
2023-05-15T19:40:36.553Z,96956.66
2023-05-15T19:43:04.200Z,96965.53
2023-05-15T19:45:31.727Z,96975.19
2023-05-15T19:48:01.302Z,96973.31
2023-05-15T19:50:29.837Z,96973.78
2023-05-15T19:52:59.255Z,96969.31
2023-05-15T19:55:27.235Z,96970.44
2023-05-15T19:57:57.273Z,96971.72
2023-05-15T20:00:25.591Z,96974.16
2023-05-15T20:02:53.757Z,96980.50
2023-05-15T20:05:22.745Z,96987.03
2023-05-15T20:07:50.253Z,96990.09
2023-05-15T20:10:19.111Z,96995.06
2023-05-15T20:12:46.925Z,96995.56
2023-05-15T20:15:15.684Z,96995.56
2023-05-15T20:17:43.670Z,97000.25
2023-05-15T20:20:12.105Z,96997.84
2023-05-15T20:22:42.857Z,97001.97
2023-05-15T20:25:10.608Z,96992.13
2023-05-15T20:27:38.220Z,96992.66
2023-05-15T20:30:06.920Z,97004.53
2023-05-15T20:32:34.675Z,97000.22
2023-05-15T20:35:02.313Z,97007.38
2023-05-15T20:37:30.258Z,97010.75
2023-05-15T20:39:59.962Z,97015.50
2023-05-15T20:42:28.420Z,97021.34
2023-05-15T20:44:55.993Z,97014.44
2023-05-15T20:47:23.585Z,97024.41
2023-05-15T20:49:51.198Z,97012.38
2023-05-15T20:52:19.066Z,97018.03
2023-05-15T20:54:46.563Z,97011.16
2023-05-15T20:57:15.495Z,97016.59
2023-05-15T20:59:43.164Z,97008.56
2023-05-15T21:02:11.083Z,97016.69
2023-05-15T21:04:39.264Z,97011.63
2023-05-15T21:07:06.896Z,97009.56
2023-05-15T21:09:34.427Z,97010.19
2023-05-15T21:12:03.806Z,97005.03
2023-05-15T21:14:32.655Z,97008.03
2023-05-15T21:17:00.232Z,97014.84
2023-05-15T21:19:27.761Z,97013.53
2023-05-15T21:21:55.255Z,97006.47
2023-05-15T21:24:22.948Z,97003.66
2023-05-15T21:26:50.475Z,96994.69
2023-05-15T21:29:17.970Z,96997.56
2023-05-15T21:31:46.915Z,96999.38
2023-05-15T21:34:14.441Z,96998.16
2023-05-15T21:36:42.025Z,97001.38
2023-05-15T21:39:09.663Z,96998.91
2023-05-15T21:41:37.160Z,96987.66
2023-05-15T21:44:04.779Z,96996.38
2023-05-15T21:46:32.282Z,96991.47
2023-05-15T21:49:01.895Z,96998.22
2023-05-15T21:51:29.422Z,96998.38
2023-05-15T21:53:56.866Z,97001.50
2023-05-15T21:56:24.371Z,97009.34
2023-05-15T21:58:53.397Z,97005.34
2023-05-15T22:01:20.969Z,97011.81
2023-05-15T22:03:48.640Z,97014.16
2023-05-15T22:06:17.540Z,97008.78
2023-05-15T22:08:45.044Z,97012.75
2023-05-15T22:11:12.602Z,97013.59
2023-05-15T22:13:40.101Z,97012.97
2023-05-15T22:16:07.724Z,97013.56
2023-05-15T22:18:35.590Z,97011.53
2023-05-15T22:21:03.503Z,97020.31
2023-05-15T22:23:32.415Z,97021.28
2023-05-15T22:25:59.974Z,97014.34
2023-05-15T22:28:27.431Z,97020.78
2023-05-15T22:30:54.916Z,97016.81
2023-05-15T22:33:24.116Z,97010.66
2023-05-15T22:35:52.782Z,97025.03
2023-05-15T22:38:20.492Z,97018.06
2023-05-15T22:40:51.632Z,97028.31
2023-05-15T22:43:19.355Z,97032.84
2023-05-15T22:45:46.867Z,97037.19
2023-05-15T22:48:15.476Z,97034.50
2023-05-15T22:50:43.658Z,97034.28
2023-05-15T22:53:11.555Z,97040.00
2023-05-15T22:55:39.118Z,97044.94
2023-05-15T22:58:07.933Z,97047.53
2023-05-15T23:00:35.534Z,97034.31
2023-05-15T23:03:03.099Z,97039.06
2023-05-15T23:05:30.777Z,97032.13
2023-05-15T23:07:58.294Z,97039.97
2023-05-15T23:10:26.185Z,97034.03
2023-05-15T23:12:53.859Z,97036.69
2023-05-15T23:15:22.743Z,97034.63
2023-05-15T23:17:50.492Z,97036.13
2023-05-15T23:20:18.689Z,97038.81
2023-05-15T23:22:46.212Z,97040.06
2023-05-15T23:25:13.889Z,97040.72
2023-05-15T23:27:41.409Z,97045.22
2023-05-15T23:30:10.100Z,97049.53
2023-05-15T23:32:38.974Z,97048.94
2023-05-15T23:35:07.524Z,97043.34
2023-05-15T23:37:35.091Z,97040.97
2023-05-15T23:40:05.487Z,97042.16
2023-05-15T23:42:32.969Z,97050.72
2023-05-15T23:45:00.662Z,97055.72
2023-05-15T23:47:28.346Z,97056.16
2023-05-15T23:49:57.183Z,97053.28
2023-05-15T23:52:24.681Z,97053.66
2023-05-15T23:54:52.141Z,97049.44
2023-05-15T23:57:19.644Z,97049.84
2023-05-15T23:59:47.130Z,97048.16
